createdAt,value
2022-11-14T00:04:17.089Z,55.17
2022-11-14T00:14:22.058Z,51.30
2022-11-14T00:19:25.762Z,44.83
2022-11-14T00:24:28.102Z,51.30
2022-11-14T00:29:30.454Z,54.17
2022-11-14T00:34:34.182Z,54.47
2022-11-14T00:39:36.568Z,52.70
2022-11-14T00:44:38.922Z,56.63
2022-11-14T00:49:42.587Z,52.47
2022-11-14T00:59:47.115Z,57.40
2022-11-14T01:04:50.906Z,55.83
2022-11-14T01:09:53.237Z,58.83
2022-11-14T01:14:55.582Z,54.95
2022-11-14T01:19:59.292Z,56.38
2022-11-14T01:25:01.629Z,56.38
2022-11-14T01:30:04.081Z,54.67
2022-11-14T01:35:08.208Z,59.50
2022-11-14T01:40:11.324Z,59.83
2022-11-14T01:45:32.215Z,56.03
2022-11-14T01:50:35.916Z,59.72
2022-11-14T02:00:40.772Z,57.10
2022-11-14T02:05:45.919Z,57.83
2022-11-14T02:10:48.302Z,65.03
2022-11-14T02:15:51.026Z,65.72
2022-11-14T02:20:54.696Z,58.87
2022-11-14T02:31:00.334Z,55.70
2022-11-14T02:36:04.111Z,63.30
2022-11-14T02:41:06.516Z,60.33
2022-11-14T02:46:08.876Z,60.53
2022-11-14T02:51:12.540Z,64.10
2022-11-14T03:01:21.474Z,58.65
2022-11-14T03:06:25.605Z,53.15
2022-11-14T03:11:27.957Z,64.20
2022-11-14T03:16:30.297Z,58.25
2022-11-14T03:21:34.042Z,56.92
2022-11-14T03:26:36.400Z,60.13
2022-11-14T03:31:38.737Z,58.83
2022-11-14T03:36:42.426Z,57.63
2022-11-14T03:46:47.002Z,56.58
2022-11-14T03:51:50.744Z,54.58
2022-11-14T03:56:53.120Z,61.00
2022-11-14T04:01:56.236Z,55.55
2022-11-14T04:06:59.984Z,59.53
2022-11-14T04:12:02.438Z,61.30
2022-11-14T04:17:04.764Z,62.70
2022-11-14T04:22:08.584Z,57.28
2022-11-14T04:27:11.073Z,54.85
2022-11-14T04:32:13.457Z,59.05
2022-11-14T04:37:17.162Z,61.58
2022-11-14T04:42:19.542Z,59.95
2022-11-14T04:47:21.902Z,58.28
2022-11-14T04:52:25.639Z,58.45
2022-11-14T04:57:27.994Z,58.00
2022-11-14T05:02:31.774Z,55.38
2022-11-14T05:07:35.589Z,51.22
2022-11-14T05:12:38.010Z,57.55
2022-11-14T05:17:40.375Z,52.42
2022-11-14T05:22:44.090Z,55.40
2022-11-14T05:27:46.472Z,57.45
2022-11-14T05:32:48.833Z,52.67
2022-11-14T05:37:57.408Z,56.13
2022-11-14T05:43:01.338Z,54.95
2022-11-14T05:48:03.720Z,57.72
2022-11-14T05:53:07.450Z,53.78
2022-11-14T05:58:09.828Z,56.50
2022-11-14T06:03:13.696Z,54.30
2022-11-14T06:08:17.367Z,57.17
2022-11-14T06:18:21.889Z,52.83
2022-11-14T06:23:25.697Z,53.92
2022-11-14T06:28:28.776Z,55.42
2022-11-14T06:33:36.220Z,52.70
2022-11-14T06:38:40.817Z,53.03
2022-11-14T06:43:44.085Z,55.33
2022-11-14T06:48:47.301Z,51.45
2022-11-14T06:53:50.997Z,49.05
2022-11-14T07:03:56.653Z,50.65
2022-11-14T07:09:00.873Z,52.45
2022-11-14T07:14:04.203Z,52.03
2022-11-14T07:19:09.086Z,50.75
2022-11-14T07:24:12.809Z,50.42
2022-11-14T07:29:15.169Z,52.90
2022-11-14T07:34:17.507Z,49.90
2022-11-14T07:39:21.270Z,48.08
2022-11-14T07:44:23.638Z,49.63
2022-11-14T07:49:26.031Z,48.25
2022-11-14T07:54:29.714Z,51.03
2022-11-14T07:59:32.045Z,46.65
2022-11-14T08:04:34.440Z,39.47
2022-11-14T08:09:38.126Z,31.48
2022-11-14T08:14:40.760Z,26.98
2022-11-14T08:19:43.171Z,25.87
2022-11-14T08:24:46.919Z,23.80
2022-11-14T08:29:51.079Z,22.77
2022-11-14T08:34:53.442Z,22.00
2022-11-14T08:39:57.155Z,21.13
2022-11-14T08:44:59.532Z,20.80
2022-11-14T08:50:01.893Z,20.92
2022-11-14T08:55:06.049Z,20.45
2022-11-14T09:00:09.169Z,19.95
2022-11-14T09:05:11.643Z,18.95
2022-11-14T09:10:16.021Z,19.03
2022-11-14T09:15:18.353Z,18.17
2022-11-14T09:20:20.708Z,17.33
2022-11-14T09:25:26.386Z,16.52
2022-11-14T09:30:28.738Z,16.58
2022-11-14T09:35:31.631Z,17.30
2022-11-14T09:40:41.762Z,16.42
2022-11-14T09:45:48.016Z,14.90
2022-11-14T09:50:54.490Z,15.23
2022-11-14T09:55:58.587Z,14.90
2022-11-14T10:01:09.147Z,13.68
2022-11-14T10:06:18.826Z,13.55
2022-11-14T10:11:27.411Z,12.57
2022-11-14T10:16:36.768Z,13.43
2022-11-14T10:21:47.664Z,12.23
2022-11-14T10:26:55.870Z,12.48
2022-11-14T10:32:02.531Z,12.45
2022-11-14T10:37:10.859Z,12.98
2022-11-14T10:42:16.510Z,12.82
2022-11-14T10:47:21.773Z,13.20
2022-11-14T10:52:27.448Z,13.50
2022-11-14T10:57:31.186Z,12.82
2022-11-14T11:02:47.762Z,12.95
2022-11-14T11:08:42.157Z,12.57
2022-11-14T11:13:33.672Z,12.10
2022-11-14T11:18:36.735Z,12.68
2022-11-14T11:28:42.685Z,12.18
2022-11-14T11:33:45.104Z,12.70
2022-11-14T11:38:48.265Z,13.50
2022-11-14T11:49:03.862Z,14.57
2022-11-14T11:54:11.608Z,13.20
2022-11-14T11:59:21.695Z,13.68
2022-11-14T12:04:25.561Z,12.75
2022-11-14T12:09:55.691Z,13.32
2022-11-14T12:14:56.563Z,12.63
2022-11-14T12:20:13.852Z,13.05
2022-11-14T12:25:27.605Z,12.77
2022-11-14T12:35:33.298Z,14.57
2022-11-14T12:40:38.634Z,16.10
2022-11-14T12:46:00.410Z,16.95
2022-11-14T12:51:03.738Z,17.23
2022-11-14T12:56:12.022Z,15.95
2022-11-14T13:01:25.507Z,17.83
2022-11-14T13:06:30.608Z,17.98
2022-11-14T13:12:00.468Z,18.80
2022-11-14T13:17:28.466Z,18.73
2022-11-14T13:22:37.551Z,18.15
2022-11-14T13:33:07.410Z,14.73
2022-11-14T13:38:16.828Z,15.52
2022-11-14T13:43:23.010Z,13.65
2022-11-14T13:48:44.797Z,14.10
2022-11-14T13:53:49.714Z,14.73
2022-11-14T13:59:03.289Z,15.95
2022-11-14T14:04:12.738Z,16.00
2022-11-14T14:09:20.283Z,17.33
2022-11-14T14:14:32.710Z,16.85
2022-11-14T14:19:38.845Z,16.05
2022-11-14T14:24:47.153Z,16.90
2022-11-14T14:29:54.785Z,15.50
2022-11-14T14:34:59.465Z,15.77
2022-11-14T14:40:02.781Z,16.70
2022-11-14T14:45:14.697Z,16.10
2022-11-14T14:50:18.510Z,15.40
2022-11-14T14:55:22.068Z,14.80
2022-11-14T15:05:30.632Z,14.87
2022-11-14T15:10:33.201Z,14.45
2022-11-14T15:15:35.703Z,14.70
2022-11-14T15:20:39.377Z,15.85
2022-11-14T15:25:42.695Z,15.75
2022-11-14T15:30:56.796Z,16.05
2022-11-14T15:41:18.456Z,15.02
2022-11-14T15:46:27.748Z,24.55
2022-11-14T15:51:40.311Z,16.83
2022-11-14T15:56:44.012Z,16.13
2022-11-14T16:01:47.399Z,16.00
2022-11-14T16:11:53.495Z,16.85
2022-11-14T16:16:55.868Z,15.13
2022-11-14T16:21:59.163Z,17.92
2022-11-14T16:27:02.906Z,16.20
2022-11-14T16:32:05.406Z,15.05
2022-11-14T16:37:12.334Z,19.67
2022-11-14T16:42:16.318Z,16.70
2022-11-14T16:47:19.493Z,18.88
2022-11-14T16:52:22.304Z,17.40
2022-11-14T16:57:26.050Z,15.10
2022-11-14T17:02:28.423Z,17.13
2022-11-14T17:07:33.351Z,16.70
2022-11-14T17:12:39.650Z,20.45
2022-11-14T17:17:46.479Z,18.92
2022-11-14T17:22:48.915Z,18.40
2022-11-14T17:27:52.720Z,19.67
2022-11-14T17:32:56.641Z,26.60
2022-11-14T17:38:21.060Z,25.17
2022-11-14T17:43:31.838Z,23.33
2022-11-14T17:48:37.026Z,28.17
2022-11-14T17:53:42.963Z,22.60
2022-11-14T17:58:52.184Z,23.23
2022-11-14T18:04:00.372Z,27.50
2022-11-14T18:09:14.028Z,23.65
2022-11-14T18:14:20.641Z,19.85
2022-11-14T18:19:24.805Z,18.73
2022-11-14T18:24:28.917Z,21.38
2022-11-14T18:29:34.023Z,21.52
2022-11-14T18:34:42.097Z,19.17
2022-11-14T18:39:47.563Z,18.33
2022-11-14T18:44:56.197Z,19.48
2022-11-14T18:50:02.914Z,18.80
2022-11-14T18:55:13.531Z,18.42
2022-11-14T19:00:32.951Z,18.60
2022-11-14T19:05:37.387Z,19.23
2022-11-14T19:10:41.025Z,18.80
2022-11-14T19:15:44.971Z,20.52
2022-11-14T19:20:57.859Z,20.25
2022-11-14T19:26:01.307Z,20.27
2022-11-14T19:36:09.074Z,19.35
2022-11-14T19:41:18.922Z,19.27
2022-11-14T19:46:26.762Z,19.27
2022-11-14T19:51:33.571Z,18.60
2022-11-14T19:56:36.398Z,19.42
2022-11-14T20:01:38.986Z,19.10
2022-11-14T20:06:43.115Z,20.08
2022-11-14T20:11:48.467Z,18.05
2022-11-14T20:16:52.904Z,18.70
2022-11-14T20:22:00.015Z,18.48
2022-11-14T20:27:06.463Z,18.00
2022-11-14T20:32:13.044Z,19.55
2022-11-14T20:37:20.584Z,19.17
2022-11-14T20:42:24.160Z,18.27
2022-11-14T20:47:28.450Z,20.08
2022-11-14T20:52:38.239Z,23.10
2022-11-14T20:57:41.848Z,21.23
2022-11-14T21:02:45.514Z,23.00
2022-11-14T21:13:19.477Z,20.92
2022-11-14T21:18:24.929Z,23.05
2022-11-14T21:23:28.994Z,23.02
2022-11-14T21:28:35.378Z,22.58
2022-11-14T21:33:39.192Z,25.10
2022-11-14T21:38:48.050Z,27.65
2022-11-14T21:43:56.379Z,25.20
2022-11-14T21:48:59.458Z,25.80
2022-11-14T21:54:07.161Z,21.52
2022-11-14T21:59:21.657Z,23.10
2022-11-14T22:04:26.922Z,26.10
2022-11-14T22:09:33.713Z,23.98
2022-11-14T22:14:51.945Z,23.88
2022-11-14T22:20:01.647Z,24.08
2022-11-14T22:25:06.546Z,28.15
2022-11-14T22:30:11.789Z,25.02
2022-11-14T22:35:15.032Z,22.42
2022-11-14T22:40:18.540Z,24.17
2022-11-14T22:45:23.701Z,21.77
2022-11-14T22:50:27.874Z,19.42
2022-11-14T22:55:32.119Z,19.55
2022-11-14T23:00:36.778Z,18.98
2022-11-14T23:05:40.810Z,20.13
2022-11-14T23:10:49.445Z,18.77
2022-11-14T23:15:54.667Z,18.25
2022-11-14T23:20:58.093Z,18.90
2022-11-14T23:31:05.657Z,18.05
2022-11-14T23:36:08.706Z,17.33
2022-11-14T23:41:17.218Z,17.35
2022-11-14T23:46:22.047Z,19.23
2022-11-14T23:51:27.081Z,17.98
2022-11-14T23:56:29.501Z,18.35
